Time;durP1;ratioP1;P1;durP2;ratioP2;P2;SDS_P1;SDS_P2;PMS_P1;PMS_P2;Temp;Humidity;BMP_temperature;BMP_pressure;BME280_temperature;BME280_humidity;BME280_pressure;Samples;Min_cycle;Max_cycle;Signal;HPM_P1;HPM_P2
2023/10/28 00:00:31;;;;;;;11.55;2.50;;;;;;;;;;5056440;28;22066;-60
2023/10/28 00:02:57;;;;;;;7.50;2.42;;;;;;;;;;5057491;28;20136;-59
2023/10/28 00:05:24;;;;;;;9.23;2.55;;;;;;;;;;5052532;28;20131;-60
2023/10/28 00:07:51;;;;;;;9.48;3.05;;;;;;;;;;5056984;28;20056;-60
2023/10/28 00:10:21;;;;;;;7.25;2.70;;;;;;;;;;5049909;28;20233;-60
2023/10/28 00:12:49;;;;;;;7.40;2.80;;;;;;;;;;5056366;28;20079;-59
2023/10/28 00:15:18;;;;;;;7.70;2.50;;;;;;;;;;5039990;28;20157;-60
2023/10/28 00:17:46;;;;;;;5.50;2.45;;;;;;;;;;5045388;28;20048;-60
2023/10/28 00:20:13;;;;;;;6.45;3.08;;;;;;;;;;5037068;28;20207;-60
2023/10/28 00:22:39;;;;;;;11.27;3.30;;;;;;;;;;5045859;28;20084;-60
2023/10/28 00:25:07;;;;;;;5.75;2.72;;;;;;;;;;5031827;28;20156;-59
2023/10/28 00:27:35;;;;;;;9.80;2.85;;;;;;;;;;5024035;28;20061;-60
2023/10/28 00:30:02;;;;;;;17.27;3.20;;;;;;;;;;5028040;28;20085;-60
2023/10/28 00:32:29;;;;;;;10.23;2.95;;;;;;;;;;5016856;28;20057;-59
2023/10/28 00:34:58;;;;;;;6.65;2.88;;;;;;;;;;5026585;28;20140;-60
2023/10/28 00:37:25;;;;;;;10.18;3.00;;;;;;;;;;5043795;28;20185;-60
2023/10/28 00:39:52;;;;;;;7.18;2.67;;;;;;;;;;5047912;28;20044;-60
2023/10/28 00:42:18;;;;;;;12.93;3.25;;;;;;;;;;5035183;28;20068;-60
2023/10/28 00:44:46;;;;;;;14.10;4.10;;;;;;;;;;5035816;28;20068;-59
2023/10/28 00:47:13;;;;;;;7.45;3.28;;;;;;;;;;5058901;28;20084;-60
2023/10/28 00:49:42;;;;;;;8.30;3.70;;;;;;;;;;5059537;28;20053;-60
2023/10/28 00:52:12;;;;;;;10.55;3.83;;;;;;;;;;5040720;28;20045;-60
2023/10/28 00:54:38;;;;;;;7.15;3.45;;;;;;;;;;5035032;28;20053;-60
2023/10/28 00:57:05;;;;;;;9.70;3.15;;;;;;;;;;5025540;28;20287;-60
2023/10/28 00:59:33;;;;;;;6.53;2.45;;;;;;;;;;5024122;28;20054;-59
2023/10/28 01:02:01;;;;;;;10.83;3.03;;;;;;;;;;5022216;28;20054;-59
2023/10/28 01:04:28;;;;;;;6.40;2.50;;;;;;;;;;5005645;28;20068;-59
2023/10/28 01:06:55;;;;;;;6.68;2.38;;;;;;;;;;5057230;28;20210;-60
2023/10/28 01:09:22;;;;;;;8.77;2.58;;;;;;;;;;5042684;28;20513;-59
2023/10/28 01:11:51;;;;;;;8.18;2.83;;;;;;;;;;5041193;28;20465;-60
2023/10/28 01:14:17;;;;;;;;;;;;;;;;;;5015774;28;20049;-60
2023/10/28 01:16:45;;;;;;;8.23;2.45;;;;;;;;;;5020654;28;20019;-60
2023/10/28 01:19:13;;;;;;;8.25;2.80;;;;;;;;;;5022740;28;20054;-60
2023/10/28 01:21:41;;;;;;;5.93;2.50;;;;;;;;;;5023389;28;20122;-59
2023/10/28 01:24:08;;;;;;;6.80;2.63;;;;;;;;;;5020242;28;20205;-60
2023/10/28 01:26:36;;;;;;;12.02;3.30;;;;;;;;;;5002181;28;20053;-60
2023/10/28 01:29:03;;;;;;;10.38;3.47;;;;;;;;;;5022399;28;20053;-60
2023/10/28 01:31:30;;;;;;;7.95;2.97;;;;;;;;;;5024340;28;20140;-59
2023/10/28 01:33:56;;;;;;;10.88;3.22;;;;;;;;;;5022076;28;20131;-60
2023/10/28 01:36:23;;;;;;;9.38;2.97;;;;;;;;;;5009142;28;20053;-60
2023/10/28 01:38:51;;;;;;;11.32;3.03;;;;;;;;;;5022827;28;20077;-59
2023/10/28 01:41:18;;;;;;;15.23;3.42;;;;;;;;;;5024418;28;20152;-59
2023/10/28 01:43:45;;;;;;;8.32;3.15;;;;;;;;;;5040412;28;20130;-59
2023/10/28 01:46:12;;;;;;;9.57;2.80;;;;;;;;;;5048459;28;20135;-59
2023/10/28 01:48:39;;;;;;;7.30;2.97;;;;;;;;;;5063536;28;20299;-59
2023/10/28 01:51:05;;;;;;;11.98;3.38;;;;;;;;;;5044098;28;20118;-59
2023/10/28 01:53:32;;;;;;;13.23;3.58;;;;;;;;;;5042924;28;20121;-59
2023/10/28 01:56:00;;;;;;;12.98;4.00;;;;;;;;;;5023279;28;20149;-59
2023/10/28 01:58:28;;;;;;;11.02;3.95;;;;;;;;;;5016883;28;20061;-60
2023/10/28 02:00:55;;;;;;;10.93;3.78;;;;;;;;;;5023742;28;20119;-60
2023/10/28 02:03:21;;;;;;;10.52;4.13;;;;;;;;;;5019411;28;20057;-60
2023/10/28 02:05:48;;;;;;;11.35;4.43;;;;;;;;;;5037931;28;20110;-60
2023/10/28 02:08:15;;;;;;;8.93;3.45;;;;;;;;;;5050862;28;20108;-59
2023/10/28 02:10:41;;;;;;;8.57;3.85;;;;;;;;;;5042853;28;20048;-59
2023/10/28 02:13:09;;;;;;;9.75;3.80;;;;;;;;;;5057586;28;20076;-59
2023/10/28 02:15:36;;;;;;;8.18;3.55;;;;;;;;;;5053767;28;20057;-60
2023/10/28 02:18:04;;;;;;;8.77;3.47;;;;;;;;;;5041614;28;20052;-60
2023/10/28 02:20:33;;;;;;;6.30;2.83;;;;;;;;;;5039726;28;20095;-59
2023/10/28 02:23:00;;;;;;;9.65;2.95;;;;;;;;;;5043104;28;20068;-60
2023/10/28 02:25:26;;;;;;;13.13;2.85;;;;;;;;;;5038089;28;20075;-59
2023/10/28 02:27:53;;;;;;;8.23;2.55;;;;;;;;;;5058293;28;20063;-60
2023/10/28 02:30:21;;;;;;;8.23;2.80;;;;;;;;;;5027457;28;20137;-59
2023/10/28 02:32:48;;;;;;;6.75;2.03;;;;;;;;;;5022244;28;20053;-60
2023/10/28 02:35:14;;;;;;;6.60;1.98;;;;;;;;;;5032607;28;20088;-60
2023/10/28 02:37:41;;;;;;;7.50;1.90;;;;;;;;;;5040887;28;20157;-60
2023/10/28 02:40:09;;;;;;;5.45;1.98;;;;;;;;;;5038446;28;20073;-60
2023/10/28 02:42:36;;;;;;;6.68;2.20;;;;;;;;;;5038078;28;20121;-60
2023/10/28 02:45:04;;;;;;;5.50;1.98;;;;;;;;;;5026878;28;20052;-60
2023/10/28 02:47:32;;;;;;;5.80;1.73;;;;;;;;;;5042892;28;20128;-60
2023/10/28 02:49:59;;;;;;;;;;;;;;;;;;5041545;28;20088;-60
2023/10/28 02:52:26;;;;;;;8.40;1.88;;;;;;;;;;5034184;28;19936;-59
2023/10/28 02:54:53;;;;;;;5.90;1.98;;;;;;;;;;5036453;28;20049;-60
2023/10/28 02:57:20;;;;;;;8.65;2.50;;;;;;;;;;5041761;28;20072;-60
2023/10/28 02:59:46;;;;;;;4.97;1.88;;;;;;;;;;5045991;28;20460;-60
2023/10/28 03:02:14;;;;;;;7.25;1.95;;;;;;;;;;5022974;28;20072;-60
2023/10/28 03:04:42;;;;;;;5.18;1.77;;;;;;;;;;5025991;28;20487;-60
2023/10/28 03:07:08;;;;;;;6.43;1.80;;;;;;;;;;5042486;28;20045;-60
2023/10/28 03:09:35;;;;;;;8.23;1.67;;;;;;;;;;5039472;28;20302;-60
2023/10/28 03:12:02;;;;;;;9.18;2.28;;;;;;;;;;5047269;28;20124;-59
2023/10/28 03:14:29;;;;;;;11.38;2.03;;;;;;;;;;5029996;28;21835;-60
2023/10/28 03:16:56;;;;;;;7.03;1.85;;;;;;;;;;5041126;28;20235;-60
2023/10/28 03:19:22;;;;;;;6.15;2.13;;;;;;;;;;5041761;28;20144;-60
2023/10/28 03:21:50;;;;;;;6.35;2.15;;;;;;;;;;5029780;28;20117;-60
2023/10/28 03:24:17;;;;;;;6.95;1.60;;;;;;;;;;5009266;28;20061;-60
2023/10/28 03:26:44;;;;;;;10.25;1.90;;;;;;;;;;5023117;28;20065;-60
2023/10/28 03:29:10;;;;;;;6.82;1.98;;;;;;;;;;5022392;28;20060;-60
2023/10/28 03:31:38;;;;;;;8.40;1.50;;;;;;;;;;5038705;28;20057;-60
2023/10/28 03:34:05;;;;;;;3.60;1.73;;;;;;;;;;5033363;28;20107;-59
2023/10/28 03:36:32;;;;;;;3.60;1.48;;;;;;;;;;5032880;28;20084;-60
2023/10/28 03:39:00;;;;;;;8.35;1.95;;;;;;;;;;5042016;28;20045;-59
2023/10/28 03:41:27;;;;;;;4.75;1.63;;;;;;;;;;5043346;28;20049;-60
2023/10/28 03:43:53;;;;;;;4.18;1.38;;;;;;;;;;5036692;28;20083;-60
2023/10/28 03:46:20;;;;;;;6.28;1.55;;;;;;;;;;5034287;28;20111;-60
2023/10/28 03:48:47;;;;;;;6.25;1.63;;;;;;;;;;5042260;28;20118;-60
2023/10/28 03:51:14;;;;;;;9.10;1.65;;;;;;;;;;5045025;28;20057;-59
2023/10/28 03:53:40;;;;;;;8.73;1.60;;;;;;;;;;5015026;28;21374;-60
2023/10/28 03:56:10;;;;;;;4.82;1.60;;;;;;;;;;5039314;28;20049;-60
2023/10/28 03:58:36;;;;;;;3.90;1.40;;;;;;;;;;5056387;28;20088;-60
2023/10/28 04:01:03;;;;;;;3.63;1.58;;;;;;;;;;5047214;28;20053;-60
2023/10/28 04:03:30;;;;;;;4.80;1.40;;;;;;;;;;5059813;28;20076;-60
2023/10/28 04:05:57;;;;;;;5.70;1.42;;;;;;;;;;5039903;28;20056;-60
2023/10/28 04:08:23;;;;;;;5.28;1.63;;;;;;;;;;5035922;28;20372;-58
2023/10/28 04:10:50;;;;;;;3.67;1.27;;;;;;;;;;5045171;28;20102;-60
2023/10/28 04:13:18;;;;;;;4.72;1.52;;;;;;;;;;5043995;28;20116;-59
2023/10/28 04:15:46;;;;;;;4.80;1.40;;;;;;;;;;5039739;28;20056;-60
2023/10/28 04:18:12;;;;;;;3.38;1.27;;;;;;;;;;5043580;28;20063;-60
2023/10/28 04:20:39;;;;;;;5.15;1.30;;;;;;;;;;5043421;28;20060;-60
2023/10/28 04:23:06;;;;;;;5.70;1.42;;;;;;;;;;5045351;28;20057;-60
2023/10/28 04:25:33;;;;;;;3.83;0.95;;;;;;;;;;5040079;28;20060;-59
2023/10/28 04:28:00;;;;;;;2.75;1.15;;;;;;;;;;5043936;28;20057;-60
2023/10/28 04:30:28;;;;;;;2.30;1.10;;;;;;;;;;5035459;28;20049;-60
2023/10/28 04:32:56;;;;;;;3.30;1.30;;;;;;;;;;5045430;28;20060;-60
2023/10/28 04:35:23;;;;;;;5.85;1.38;;;;;;;;;;5039381;28;20064;-60
2023/10/28 04:37:50;;;;;;;3.53;1.20;;;;;;;;;;5044004;28;20140;-60
2023/10/28 04:40:16;;;;;;;3.72;1.67;;;;;;;;;;5036529;28;20131;-60
2023/10/28 04:42:43;;;;;;;6.93;2.00;;;;;;;;;;5045173;28;20053;-60
2023/10/28 04:45:10;;;;;;;3.85;1.80;;;;;;;;;;5029328;28;20071;-60
2023/10/28 04:47:38;;;;;;;5.63;1.85;;;;;;;;;;5043914;28;20148;-60
2023/10/28 04:50:05;;;;;;;4.28;2.15;;;;;;;;;;5041629;28;20080;-60
2023/10/28 04:52:32;;;;;;;6.78;1.70;;;;;;;;;;5038587;28;20068;-60
2023/10/28 04:54:59;;;;;;;3.67;1.80;;;;;;;;;;5040811;28;20052;-60
2023/10/28 04:57:26;;;;;;;3.95;1.55;;;;;;;;;;5042655;28;20049;-60
2023/10/28 04:59:52;;;;;;;8.27;1.50;;;;;;;;;;5040595;28;20139;-60
2023/10/28 05:02:19;;;;;;;2.65;1.42;;;;;;;;;;5035506;28;20068;-60
2023/10/28 05:04:47;;;;;;;7.90;1.38;;;;;;;;;;5037672;28;20061;-60
2023/10/28 05:07:14;;;;;;;4.05;1.30;;;;;;;;;;5041111;28;20489;-60
2023/10/28 05:09:40;;;;;;;3.10;1.23;;;;;;;;;;5040181;28;20078;-60
2023/10/28 05:12:08;;;;;;;3.72;1.40;;;;;;;;;;5040423;28;20091;-60
2023/10/28 05:14:35;;;;;;;5.63;1.40;;;;;;;;;;5034403;28;20049;-60
2023/10/28 05:17:02;;;;;;;3.55;1.58;;;;;;;;;;5048028;28;20056;-60
2023/10/28 05:19:28;;;;;;;7.63;1.45;;;;;;;;;;5042282;28;20053;-60
2023/10/28 05:21:56;;;;;;;5.90;1.60;;;;;;;;;;5048228;28;20103;-60
2023/10/28 05:24:23;;;;;;;4.53;1.42;;;;;;;;;;5022308;28;20077;-60
2023/10/28 05:26:50;;;;;;;3.50;1.55;;;;;;;;;;5044725;28;20088;-60
2023/10/28 05:29:17;;;;;;;3.17;1.30;;;;;;;;;;5041933;28;20135;-60
2023/10/28 05:31:43;;;;;;;4.20;1.10;;;;;;;;;;5042291;28;20077;-60
2023/10/28 05:34:10;;;;;;;2.63;1.30;;;;;;;;;;5033158;28;20052;-60
2023/10/28 05:36:37;;;;;;;5.55;1.73;;;;;;;;;;5039694;28;20055;-60
2023/10/28 05:39:07;;;;;;;4.10;1.38;;;;;;;;;;5042823;28;20132;-60
2023/10/28 05:41:33;;;;;;;4.72;1.30;;;;;;;;;;5042068;28;20098;-60
2023/10/28 05:44:00;;;;;;;5.53;1.30;;;;;;;;;;5039352;28;20080;-60
2023/10/28 05:46:27;;;;;;;3.55;1.58;;;;;;;;;;5035724;28;20056;-60
2023/10/28 05:48:53;;;;;;;6.07;1.85;;;;;;;;;;5042120;28;20053;-60
2023/10/28 05:51:20;;;;;;;4.30;1.48;;;;;;;;;;5042732;28;20056;-60
2023/10/28 05:53:47;;;;;;;3.10;1.48;;;;;;;;;;5034913;28;20102;-61
2023/10/28 05:56:16;;;;;;;4.30;1.77;;;;;;;;;;5035783;28;20080;-60
2023/10/28 05:58:42;;;;;;;3.80;1.50;;;;;;;;;;5041304;28;20060;-60
2023/10/28 06:01:09;;;;;;;6.28;1.50;;;;;;;;;;5043472;28;20202;-60
2023/10/28 06:03:38;;;;;;;5.32;1.60;;;;;;;;;;5043413;28;20083;-61
2023/10/28 06:06:05;;;;;;;3.55;1.20;;;;;;;;;;5080525;28;20056;-60
2023/10/28 06:08:32;;;;;;;6.00;1.75;;;;;;;;;;5078241;28;20151;-60
2023/10/28 06:10:59;;;;;;;6.72;1.30;;;;;;;;;;5083053;28;20066;-60
2023/10/28 06:13:28;;;;;;;2.25;1.15;;;;;;;;;;5070106;28;20051;-60
2023/10/28 06:15:55;;;;;;;4.28;1.33;;;;;;;;;;5057553;28;20051;-60
2023/10/28 06:18:22;;;;;;;2.15;1.02;;;;;;;;;;5055268;28;20153;-60
2023/10/28 06:20:48;;;;;;;5.20;1.20;;;;;;;;;;5062096;28;20123;-60
2023/10/28 06:23:15;;;;;;;5.35;1.35;;;;;;;;;;5062989;28;20056;-60
2023/10/28 06:25:42;;;;;;;2.75;1.25;;;;;;;;;;5065361;28;20074;-60
2023/10/28 06:28:11;;;;;;;2.85;1.25;;;;;;;;;;5061644;28;20044;-61
2023/10/28 06:30:45;;;;;;;;;;;;;;;;;;5059922;28;20055;-60
2023/10/28 06:33:13;;;;;;;6.93;1.45;;;;;;;;;;5064591;28;20280;-60
2023/10/28 06:35:40;;;;;;;3.92;1.50;;;;;;;;;;5059114;28;20148;-60
2023/10/28 06:38:07;;;;;;;5.60;1.75;;;;;;;;;;5078360;28;20048;-60
2023/10/28 06:40:33;;;;;;;7.45;2.92;;;;;;;;;;5081132;28;20054;-61
2023/10/28 06:43:05;;;;;;;6.07;1.95;;;;;;;;;;5085488;28;20094;-61
2023/10/28 06:45:32;;;;;;;6.43;2.35;;;;;;;;;;5049882;28;20087;-60
2023/10/28 06:48:01;;;;;;;5.38;1.75;;;;;;;;;;5062503;28;20229;-60
2023/10/28 06:50:27;;;;;;;;;;;;;;;;;;5060322;28;20050;-60
2023/10/28 06:52:55;;;;;;;4.20;1.20;;;;;;;;;;5063604;28;20006;-61
2023/10/28 06:55:22;;;;;;;2.28;1.20;;;;;;;;;;5028425;28;20490;-60
2023/10/28 06:57:48;;;;;;;9.95;4.55;;;;;;;;;;5061711;28;20052;-61
2023/10/28 07:00:15;;;;;;;7.25;2.92;;;;;;;;;;5076574;28;20109;-60
2023/10/28 07:02:42;;;;;;;5.57;2.35;;;;;;;;;;5063893;28;20055;-61
2023/10/28 07:05:14;;;;;;;5.57;1.90;;;;;;;;;;5069467;28;20143;-60
2023/10/28 07:07:41;;;;;;;5.53;2.08;;;;;;;;;;5084625;28;20052;-61
2023/10/28 07:10:12;;;;;;;3.72;1.30;;;;;;;;;;5057722;28;20093;-61
2023/10/28 07:12:39;;;;;;;4.22;1.50;;;;;;;;;;5062780;28;20085;-60
2023/10/28 07:15:09;;;;;;;4.93;1.17;;;;;;;;;;5060954;28;20051;-60
2023/10/28 07:17:39;;;;;;;2.40;1.30;;;;;;;;;;5080119;28;20118;-61
2023/10/28 07:20:08;;;;;;;4.38;1.48;;;;;;;;;;5061362;28;20048;-61
2023/10/28 07:22:41;;;;;;;3.42;1.45;;;;;;;;;;5079747;28;20044;-61
2023/10/28 07:25:12;;;;;;;5.82;2.08;;;;;;;;;;5011197;28;20254;-61
2023/10/28 07:27:39;;;;;;;8.73;2.08;;;;;;;;;;5076563;28;20056;-60
2023/10/28 07:30:08;;;;;;;7.70;2.53;;;;;;;;;;5081203;28;20055;-61
2023/10/28 07:32:34;;;;;;;4.30;2.00;;;;;;;;;;5081975;28;20052;-61
2023/10/28 07:35:02;;;;;;;7.55;2.47;;;;;;;;;;5071040;28;20101;-61
2023/10/28 07:37:28;;;;;;;6.30;2.28;;;;;;;;;;5068366;28;20145;-61
2023/10/28 07:39:56;;;;;;;5.05;2.20;;;;;;;;;;5067922;28;20048;-61
2023/10/28 07:42:26;;;;;;;6.65;2.13;;;;;;;;;;5083743;28;20060;-61
2023/10/28 07:44:53;;;;;;;8.07;2.28;;;;;;;;;;5075166;28;20056;-61
2023/10/28 07:47:20;;;;;;;5.80;1.67;;;;;;;;;;5068661;28;20067;-60
2023/10/28 07:49:46;;;;;;;5.55;1.73;;;;;;;;;;5066515;28;20082;-61
2023/10/28 07:52:13;;;;;;;5.60;1.75;;;;;;;;;;5082043;28;20133;-60
2023/10/28 07:54:40;;;;;;;5.82;1.70;;;;;;;;;;5026561;28;20083;-60
2023/10/28 07:57:08;;;;;;;4.00;1.48;;;;;;;;;;5057912;28;20236;-60
2023/10/28 07:59:34;;;;;;;5.68;1.60;;;;;;;;;;5067782;28;20071;-60
2023/10/28 08:02:01;;;;;;;3.22;1.50;;;;;;;;;;5078821;28;20045;-60
2023/10/28 08:04:28;;;;;;;5.28;1.38;;;;;;;;;;5015941;28;21586;-60
2023/10/28 08:06:55;;;;;;;4.93;1.45;;;;;;;;;;5078099;28;20118;-60
2023/10/28 08:09:22;;;;;;;4.88;1.40;;;;;;;;;;5043320;28;20143;-60
2023/10/28 08:11:50;;;;;;;3.10;1.30;;;;;;;;;;5046954;28;20052;-60
2023/10/28 08:14:18;;;;;;;5.20;1.58;;;;;;;;;;5038467;28;20112;-60
2023/10/28 08:16:45;;;;;;;3.72;1.48;;;;;;;;;;5045271;28;20055;-60
2023/10/28 08:19:12;;;;;;;4.43;1.30;;;;;;;;;;5044966;28;20080;-60
2023/10/28 08:21:39;;;;;;;6.88;1.27;;;;;;;;;;5043692;28;20060;-60
2023/10/28 08:24:08;;;;;;;5.68;1.60;;;;;;;;;;5027831;28;20060;-60
2023/10/28 08:26:35;;;;;;;3.05;1.27;;;;;;;;;;5041937;28;20735;-59
2023/10/28 08:29:02;;;;;;;8.30;1.40;;;;;;;;;;5042946;28;20119;-61
2023/10/28 08:31:30;;;;;;;3.88;1.20;;;;;;;;;;5045678;28;20072;-58
2023/10/28 08:33:56;;;;;;;5.72;1.45;;;;;;;;;;5029995;28;20080;-58
2023/10/28 08:36:25;;;;;;;3.42;1.13;;;;;;;;;;5040469;28;20045;-58
2023/10/28 08:38:51;;;;;;;3.88;1.10;;;;;;;;;;5046812;28;20135;-59
2023/10/28 08:41:21;;;;;;;2.47;0.95;;;;;;;;;;5043130;28;20092;-58
2023/10/28 08:43:49;;;;;;;4.20;1.25;;;;;;;;;;5024913;28;20057;-60
2023/10/28 08:46:16;;;;;;;6.60;1.67;;;;;;;;;;5021460;28;20056;-58
2023/10/28 08:48:44;;;;;;;3.47;1.70;;;;;;;;;;5041362;28;20064;-60
2023/10/28 08:51:13;;;;;;;8.23;3.05;;;;;;;;;;5045660;28;20064;-60
2023/10/28 08:53:44;;;;;;;5.78;2.45;;;;;;;;;;5040608;28;20071;-60
2023/10/28 08:56:12;;;;;;;4.43;1.52;;;;;;;;;;5034417;28;20095;-59
2023/10/28 08:58:39;;;;;;;7.60;1.90;;;;;;;;;;5044666;28;20049;-58
2023/10/28 09:01:08;;;;;;;6.18;1.58;;;;;;;;;;5049048;28;20053;-59
2023/10/28 09:03:35;;;;;;;;;;;;;;;;;;5042232;28;20148;-59
2023/10/28 09:06:06;;;;;;;5.05;1.65;;;;;;;;;;4972264;28;19960;-60
2023/10/28 09:08:33;;;;;;;7.30;2.00;;;;;;;;;;5034530;28;20116;-59
2023/10/28 09:11:01;;;;;;;5.15;1.50;;;;;;;;;;5048234;28;20091;-59
2023/10/28 09:13:27;;;;;;;7.25;2.00;;;;;;;;;;5061090;28;20097;-59
2023/10/28 09:15:54;;;;;;;8.07;2.30;;;;;;;;;;5038333;28;20053;-61
2023/10/28 09:18:23;;;;;;;9.80;2.28;;;;;;;;;;5036559;28;20375;-60
2023/10/28 09:20:52;;;;;;;7.60;3.13;;;;;;;;;;5041864;28;20142;-59
2023/10/28 09:23:20;;;;;;;6.45;2.00;;;;;;;;;;5048029;28;20057;-60
2023/10/28 09:25:47;;;;;;;6.45;1.67;;;;;;;;;;5029856;28;20100;-60
2023/10/28 09:28:18;;;;;;;5.47;1.88;;;;;;;;;;5037468;28;20131;-60
2023/10/28 09:30:46;;;;;;;6.53;2.03;;;;;;;;;;5042057;28;20119;-57
2023/10/28 09:33:13;;;;;;;3.38;1.67;;;;;;;;;;5040948;28;20071;-59
2023/10/28 09:35:43;;;;;;;5.05;1.63;;;;;;;;;;5036379;28;20076;-60
2023/10/28 09:38:13;;;;;;;6.18;1.48;;;;;;;;;;5041861;28;20132;-61
2023/10/28 09:40:41;;;;;;;6.95;1.52;;;;;;;;;;5040884;28;20118;-60
2023/10/28 09:43:08;;;;;;;6.55;1.23;;;;;;;;;;5042820;28;20143;-60
2023/10/28 09:45:36;;;;;;;4.82;1.38;;;;;;;;;;5026491;28;20055;-62
2023/10/28 09:48:12;;;;;;;4.90;1.60;;;;;;;;;;5063356;28;20140;-62
2023/10/28 09:50:44;;;;;;;5.70;1.48;;;;;;;;;;5040194;28;20448;-61
2023/10/28 09:53:16;;;;;;;4.65;1.20;;;;;;;;;;5039526;28;20049;-60
2023/10/28 09:55:45;;;;;;;3.58;1.42;;;;;;;;;;5022652;28;20098;-62
2023/10/28 09:58:19;;;;;;;4.32;1.33;;;;;;;;;;5018949;28;20087;-61
2023/10/28 10:00:48;;;;;;;8.73;1.50;;;;;;;;;;5038287;28;20045;-62
2023/10/28 10:03:27;;;;;;;7.05;1.40;;;;;;;;;;5061629;28;20047;-62
2023/10/28 10:05:55;;;;;;;3.90;1.42;;;;;;;;;;5036957;28;20056;-59
2023/10/28 10:08:23;;;;;;;7.25;1.23;;;;;;;;;;5041135;28;20330;-60
2023/10/28 10:10:52;;;;;;;4.60;1.40;;;;;;;;;;5057720;28;20074;-60
2023/10/28 10:13:19;;;;;;;6.65;1.30;;;;;;;;;;5056822;28;20052;-59
2023/10/28 10:15:54;;;;;;;5.00;1.35;;;;;;;;;;5058663;28;20152;-61
2023/10/28 10:18:32;;;;;;;4.95;1.45;;;;;;;;;;5057613;28;20056;-61
2023/10/28 10:21:06;;;;;;;2.73;1.47;;;;;;;;;;5063606;28;20130;-59
2023/10/28 10:23:44;;;;;;;10.25;4.18;;;;;;;;;;5060888;28;20056;-62
2023/10/28 10:26:22;;;;;;;12.30;2.97;;;;;;;;;;5057042;28;20056;-62
2023/10/28 10:28:49;;;;;;;3.03;1.15;;;;;;;;;;5066144;28;20047;-59
2023/10/28 10:31:19;;;;;;;5.28;1.60;;;;;;;;;;5061371;28;20061;-61
2023/10/28 10:33:45;;;;;;;3.97;1.55;;;;;;;;;;5059928;28;20057;-60
2023/10/28 10:36:17;;;;;;;5.55;1.40;;;;;;;;;;5047984;28;20052;-60
2023/10/28 10:38:45;;;;;;;5.70;1.30;;;;;;;;;;5061654;28;20063;-59
2023/10/28 10:41:23;;;;;;;8.18;1.35;;;;;;;;;;5077663;28;20130;-62
2023/10/28 10:43:51;;;;;;;4.93;1.30;;;;;;;;;;5059133;28;20110;-61
2023/10/28 10:46:19;;;;;;;3.78;1.23;;;;;;;;;;5049254;28;20094;-61
2023/10/28 10:48:48;;;;;;;7.43;3.33;;;;;;;;;;5060902;28;20135;-62
2023/10/28 10:51:15;;;;;;;5.65;1.58;;;;;;;;;;5062275;28;20132;-62
2023/10/28 10:53:43;;;;;;;8.93;1.17;;;;;;;;;;5059947;28;20113;-63
2023/10/28 10:56:19;;;;;;;4.53;0.82;;;;;;;;;;5048029;28;20064;-61
2023/10/28 10:58:46;;;;;;;3.97;1.05;;;;;;;;;;5061489;28;20064;-62
2023/10/28 11:01:19;;;;;;;8.15;1.20;;;;;;;;;;5060844;28;20052;-62
2023/10/28 11:03:49;;;;;;;4.85;1.10;;;;;;;;;;5055853;28;20074;-61
2023/10/28 11:06:19;;;;;;;3.78;0.80;;;;;;;;;;4980577;28;20052;-61
2023/10/28 11:08:47;;;;;;;4.75;1.25;;;;;;;;;;5036432;28;20053;-60
2023/10/28 11:11:26;;;;;;;4.45;1.25;;;;;;;;;;5020243;28;20111;-62
2023/10/28 11:13:54;;;;;;;3.58;1.00;;;;;;;;;;5040332;28;20117;-61
2023/10/28 11:16:44;;;;;;;5.28;0.98;;;;;;;;;;4932448;28;20054;-61
2023/10/28 11:19:11;;;;;;;2.88;0.88;;;;;;;;;;4993166;28;20045;-61
2023/10/28 11:21:45;;;;;;;5.22;0.90;;;;;;;;;;5034381;28;20164;-62
2023/10/28 11:24:17;;;;;;;6.60;1.23;;;;;;;;;;5035050;28;20101;-63
2023/10/28 11:27:03;;;;;;;5.95;0.60;;;;;;;;;;5024407;28;20048;-61
2023/10/28 11:29:31;;;;;;;6.45;1.10;;;;;;;;;;5059005;28;20178;-62
2023/10/28 11:32:22;;;;;;;3.45;0.93;;;;;;;;;;5039824;28;20060;-61
2023/10/28 11:34:57;;;;;;;8.60;1.00;;;;;;;;;;4972481;28;20142;-63
2023/10/28 11:37:24;;;;;;;5.40;1.10;;;;;;;;;;5072452;28;20063;-63
2023/10/28 11:39:51;;;;;;;4.03;1.10;;;;;;;;;;5058984;28;20132;-62
2023/10/28 11:42:19;;;;;;;7.63;2.30;;;;;;;;;;5053781;28;20148;-61
2023/10/28 11:44:49;;;;;;;12.97;3.13;;;;;;;;;;5008969;28;20134;-60
2023/10/28 11:47:20;;;;;;;6.75;1.60;;;;;;;;;;5060244;28;20040;-62
2023/10/28 11:49:47;;;;;;;10.68;3.05;;;;;;;;;;5060801;28;20052;-61
2023/10/28 11:52:23;;;;;;;9.77;3.27;;;;;;;;;;5052734;28;20082;-61
2023/10/28 11:54:53;;;;;;;9.82;1.52;;;;;;;;;;5037225;28;21322;-63
2023/10/28 11:57:23;;;;;;;4.28;1.17;;;;;;;;;;5059655;28;20048;-62
2023/10/28 11:59:52;;;;;;;7.32;1.20;;;;;;;;;;5057087;28;20096;-62
2023/10/28 12:02:22;;;;;;;12.45;1.65;;;;;;;;;;5057132;28;20048;-62
2023/10/28 12:04:49;;;;;;;7.82;1.30;;;;;;;;;;5049029;28;20066;-64
2023/10/28 12:07:22;;;;;;;8.52;1.67;;;;;;;;;;5062658;28;20056;-62
2023/10/28 12:09:48;;;;;;;6.53;2.08;;;;;;;;;;5077093;28;20056;-62
2023/10/28 12:12:15;;;;;;;9.63;1.90;;;;;;;;;;5072713;28;20156;-62
2023/10/28 12:14:42;;;;;;;9.27;1.42;;;;;;;;;;5079480;28;21074;-62
2023/10/28 12:17:11;;;;;;;10.35;1.48;;;;;;;;;;5080911;28;20072;-61
2023/10/28 12:19:40;;;;;;;11.98;1.40;;;;;;;;;;5062528;28;20552;-62
2023/10/28 12:22:07;;;;;;;8.20;1.33;;;;;;;;;;5078747;28;20071;-63
2023/10/28 12:24:39;;;;;;;6.75;1.65;;;;;;;;;;5073503;28;20555;-62
2023/10/28 12:27:06;;;;;;;5.45;1.08;;;;;;;;;;5062534;28;20056;-63
2023/10/28 12:29:33;;;;;;;12.20;1.65;;;;;;;;;;5061993;28;20060;-62
2023/10/28 12:32:04;;;;;;;8.77;1.15;;;;;;;;;;5079381;28;20048;-62
2023/10/28 12:34:33;;;;;;;6.35;1.15;;;;;;;;;;5050782;28;21674;-62
2023/10/28 12:37:04;;;;;;;6.82;1.30;;;;;;;;;;5059662;28;20135;-61
2023/10/28 12:39:51;;;;;;;;;;;;;;;;;;;;;
2023/10/28 12:42:20;;;;;;;8.32;1.38;;;;;;;;;;5056559;28;20060;-62
2023/10/28 12:44:48;;;;;;;6.70;1.67;;;;;;;;;;5056249;28;20054;-63
2023/10/28 12:47:18;;;;;;;10.70;1.40;;;;;;;;;;5080720;28;20159;-62
2023/10/28 12:49:46;;;;;;;8.50;1.40;;;;;;;;;;5057272;28;20052;-62
2023/10/28 12:52:14;;;;;;;13.85;1.85;;;;;;;;;;5057160;28;20060;-60
2023/10/28 12:54:42;;;;;;;6.43;1.33;;;;;;;;;;5036173;28;20504;-62
2023/10/28 12:57:11;;;;;;;5.25;1.30;;;;;;;;;;5060733;28;20045;-60
2023/10/28 12:59:38;;;;;;;9.38;1.30;;;;;;;;;;5064057;28;20040;-60
2023/10/28 13:02:09;;;;;;;6.82;1.42;;;;;;;;;;5062093;28;20076;-62
2023/10/28 13:04:40;;;;;;;6.68;1.40;;;;;;;;;;5036241;28;20044;-62
2023/10/28 13:07:09;;;;;;;8.02;1.35;;;;;;;;;;5062405;28;20052;-60
2023/10/28 13:09:40;;;;;;;;;;;;;;;;;;5082421;28;20055;-60
2023/10/28 13:12:08;;;;;;;11.23;1.38;;;;;;;;;;5062618;28;19935;-61
2023/10/28 13:14:39;;;;;;;7.20;1.35;;;;;;;;;;5035481;28;20059;-61
2023/10/28 13:17:12;;;;;;;7.32;1.40;;;;;;;;;;5062303;28;20079;-62
2023/10/28 13:19:39;;;;;;;7.45;1.65;;;;;;;;;;5074740;28;20044;-60
2023/10/28 13:22:07;;;;;;;10.00;1.60;;;;;;;;;;5049336;28;20076;-62
2023/10/28 13:24:33;;;;;;;7.40;1.20;;;;;;;;;;5044684;28;20142;-62
2023/10/28 13:27:03;;;;;;;9.90;1.60;;;;;;;;;;5013131;28;20459;-62
2023/10/28 13:29:29;;;;;;;15.90;1.67;;;;;;;;;;5089615;28;20052;-62
2023/10/28 13:31:56;;;;;;;10.35;1.45;;;;;;;;;;5069073;28;20051;-62
2023/10/28 13:34:25;;;;;;;12.07;1.83;;;;;;;;;;5053222;28;20172;-63
2023/10/28 13:36:51;;;;;;;11.68;1.65;;;;;;;;;;5064335;28;20047;-61
2023/10/28 13:39:18;;;;;;;9.50;1.88;;;;;;;;;;5071445;28;20056;-60
2023/10/28 13:41:45;;;;;;;10.38;1.35;;;;;;;;;;5061840;28;20139;-62
2023/10/28 13:44:15;;;;;;;11.90;1.80;;;;;;;;;;5068183;28;20067;-61
2023/10/28 13:46:42;;;;;;;6.60;0.90;;;;;;;;;;5073027;28;20138;-60
2023/10/28 13:49:09;;;;;;;15.88;1.98;;;;;;;;;;5077614;28;20086;-61
2023/10/28 13:51:36;;;;;;;15.95;1.50;;;;;;;;;;5078714;28;20056;-61
2023/10/28 13:54:03;;;;;;;8.18;1.45;;;;;;;;;;5075037;28;20127;-60
2023/10/28 13:56:34;;;;;;;8.73;1.58;;;;;;;;;;5013541;28;20067;-62
2023/10/28 13:59:04;;;;;;;11.35;1.13;;;;;;;;;;5077846;28;20047;-61
2023/10/28 14:01:32;;;;;;;11.55;1.80;;;;;;;;;;5062432;28;20125;-60
2023/10/28 14:04:00;;;;;;;9.95;1.92;;;;;;;;;;5083575;28;20046;-60
2023/10/28 14:06:27;;;;;;;16.10;2.33;;;;;;;;;;5047520;28;20329;-60
2023/10/28 14:08:57;;;;;;;11.82;4.72;;;;;;;;;;5058750;28;20062;-61
2023/10/28 14:11:33;;;;;;;12.10;2.22;;;;;;;;;;5058089;28;20084;-60
2023/10/28 14:14:01;;;;;;;12.98;1.88;;;;;;;;;;5057653;28;20056;-61
2023/10/28 14:16:28;;;;;;;11.38;1.60;;;;;;;;;;5034223;28;20291;-60
2023/10/28 14:19:01;;;;;;;10.40;1.85;;;;;;;;;;5042208;28;20084;-62
2023/10/28 14:21:30;;;;;;;10.85;1.40;;;;;;;;;;5057377;28;20060;-61
2023/10/28 14:23:57;;;;;;;6.85;1.23;;;;;;;;;;5057834;28;20052;-61
2023/10/28 14:26:30;;;;;;;9.60;1.58;;;;;;;;;;4970497;28;20052;-62
2023/10/28 14:29:01;;;;;;;9.32;1.55;;;;;;;;;;5069747;28;20074;-62
2023/10/28 14:31:31;;;;;;;15.07;1.75;;;;;;;;;;5069943;28;20056;-62
2023/10/28 14:34:10;;;;;;;9.82;1.85;;;;;;;;;;5067126;28;20096;-61
2023/10/28 14:36:40;;;;;;;9.85;1.52;;;;;;;;;;5053044;28;20075;-62
2023/10/28 14:39:11;;;;;;;7.85;1.30;;;;;;;;;;5039662;28;20056;-62
2023/10/28 14:41:43;;;;;;;9.48;1.55;;;;;;;;;;5063000;28;20052;-62
2023/10/28 14:44:12;;;;;;;10.32;1.83;;;;;;;;;;5050485;28;20054;-62
2023/10/28 14:46:39;;;;;;;9.70;1.50;;;;;;;;;;5013623;28;20482;-62
2023/10/28 14:49:10;;;;;;;7.57;1.40;;;;;;;;;;5018229;28;20065;-62